Time;durP1;ratioP1;P1;durP2;ratioP2;P2;SDS_P1;SDS_P2;PMS_P1;PMS_P2;Temp;Humidity;BMP_temperature;BMP_pressure;BME280_temperature;BME280_humidity;BME280_pressure;Samples;Min_cycle;Max_cycle;Signal;HPM_P1;HPM_P2
2021/11/23 00:01:07;;;;;;;18.10;12.55;;;;;;;10.77;60.86;98900.56;5054368;28;20024;-49
2021/11/23 00:03:33;;;;;;;14.30;11.52;;;;;;;10.87;60.54;98889.69;5054345;28;20021;-49
2021/11/23 00:05:59;;;;;;;18.17;11.63;;;;;;;10.94;60.29;98898.38;5054252;28;20086;-49
2021/11/23 00:08:25;;;;;;;22.35;11.15;;;;;;;10.99;59.85;98894.16;5052904;28;20025;-49
2021/11/23 00:10:51;;;;;;;19.38;10.23;;;;;;;11.08;59.46;98900.03;5054080;28;20025;-49
2021/11/23 00:13:18;;;;;;;20.38;11.40;;;;;;;11.03;59.57;98888.50;5036117;28;20027;-49
2021/11/23 00:15:44;;;;;;;14.45;9.98;;;;;;;10.96;59.54;98888.50;5054073;28;20079;-49
2021/11/23 00:18:13;;;;;;;15.25;10.52;;;;;;;10.86;59.79;98883.59;5036008;28;20076;-49
2021/11/23 00:20:42;;;;;;;18.00;10.45;;;;;;;10.85;59.96;98886.47;5053908;28;20517;-49
2021/11/23 00:23:09;;;;;;;13.82;10.02;;;;;;;10.89;59.71;98879.81;5053914;28;20025;-49
2021/11/23 00:25:35;;;;;;;14.07;9.38;;;;;;;10.85;59.84;98886.47;5053838;28;20028;-49
2021/11/23 00:28:01;;;;;;;15.98;9.30;;;;;;;10.88;59.60;98884.22;5053532;28;20021;-49
2021/11/23 00:30:29;;;;;;;12.75;9.43;;;;;;;10.88;59.17;98886.84;5053828;28;20064;-50
2021/11/23 00:32:56;;;;;;;15.95;9.82;;;;;;;10.81;59.17;98893.09;5053644;28;20021;-48
2021/11/23 00:35:22;;;;;;;18.83;9.50;;;;;;;10.62;59.12;98894.63;5053149;28;20071;-49
2021/11/23 00:37:50;;;;;;;13.57;10.75;;;;;;;10.36;59.55;98898.72;5053672;28;20029;-49
2021/11/23 00:40:19;;;;;;;13.20;10.30;;;;;;;10.13;60.09;98904.22;5053576;28;20017;-49
2021/11/23 00:42:45;;;;;;;16.88;10.55;;;;;;;9.97;60.58;98902.69;5053561;28;20051;-49
2021/11/23 00:45:12;;;;;;;14.25;10.55;;;;;;;9.80;60.83;98905.59;5035484;28;20486;-50
2021/11/23 00:47:39;;;;;;;13.95;10.70;;;;;;;9.67;61.23;98900.25;5053417;28;20028;-49
2021/11/23 00:50:07;;;;;;;18.27;10.23;;;;;;;9.56;61.39;98906.00;5053415;28;20025;-51
2021/11/23 00:52:34;;;;;;;95.65;77.80;;;;;;;9.53;62.12;98909.78;5053301;28;20031;-49
2021/11/23 00:55:00;;;;;;;28.15;24.08;;;;;;;9.64;62.44;98905.88;5053306;28;20024;-49
2021/11/23 00:57:25;;;;;;;84.18;74.95;;;;;;;9.87;61.92;98903.03;5053281;28;20025;-50
2021/11/23 00:59:51;;;;;;;30.25;23.73;;;;;;;10.12;61.66;98905.22;5053252;28;20017;-49
2021/11/23 01:02:16;;;;;;;56.70;36.70;;;;;;;10.17;60.92;98903.63;5053082;28;20041;-49
2021/11/23 01:04:43;;;;;;;39.28;30.58;;;;;;;10.16;61.22;98909.06;5053145;28;20130;-49
2021/11/23 01:07:09;;;;;;;17.45;12.45;;;;;;;10.20;60.96;98905.91;5053091;28;20087;-49
2021/11/23 01:09:34;;;;;;;15.55;11.45;;;;;;;10.24;60.88;98908.13;5053030;28;20025;-49
2021/11/23 01:12:00;;;;;;;18.55;10.23;;;;;;;10.24;60.91;98913.38;5052928;28;20017;-49
2021/11/23 01:14:26;;;;;;;21.85;11.05;;;;;;;10.16;60.74;98909.91;5052916;28;20024;-49
2021/11/23 01:16:52;;;;;;;12.02;9.07;;;;;;;10.19;61.05;98908.69;5052788;28;20047;-50
2021/11/23 01:19:18;;;;;;;10.27;8.30;;;;;;;10.16;60.43;98909.06;5034807;28;20056;-49
2021/11/23 01:21:44;;;;;;;15.95;9.48;;;;;;;9.99;60.71;98917.22;5052652;28;20116;-49
2021/11/23 01:24:11;;;;;;;17.27;8.77;;;;;;;9.90;60.90;98915.78;5034649;28;20457;-49
2021/11/23 01:26:37;;;;;;;11.88;9.10;;;;;;;9.82;61.11;98915.91;5052961;28;20052;-49
2021/11/23 01:29:04;;;;;;;11.60;8.18;;;;;;;9.77;61.43;98926.94;5052213;28;20447;-49
2021/11/23 01:31:30;;;;;;;13.27;8.25;;;;;;;9.80;61.20;98925.78;5052619;28;20067;-49
2021/11/23 01:33:56;;;;;;;12.60;8.85;;;;;;;9.74;61.04;98926.53;5034573;28;20048;-49
2021/11/23 01:36:22;;;;;;;14.07;8.98;;;;;;;9.61;61.23;98924.59;5034614;28;20032;-49
2021/11/23 01:38:48;;;;;;;12.48;9.68;;;;;;;9.55;61.49;98922.72;5052554;28;20033;-49
2021/11/23 01:41:13;;;;;;;9.40;8.25;;;;;;;9.58;61.64;98919.75;5052420;28;20490;-50
2021/11/23 01:43:39;;;;;;;11.57;8.20;;;;;;;9.59;61.38;98931.81;5052478;28;20482;-49
2021/11/23 01:46:05;;;;;;;13.85;8.40;;;;;;;9.55;61.67;98926.13;5051901;28;20026;-49
2021/11/23 01:48:32;;;;;;;13.85;8.98;;;;;;;9.49;61.60;98937.38;5052514;28;20033;-49
2021/11/23 01:50:59;;;;;;;11.00;8.18;;;;;;;9.46;62.17;98932.53;5034391;28;20029;-49
2021/11/23 01:53:25;;;;;;;14.30;8.43;;;;;;;9.55;62.56;98928.75;5052148;28;20025;-49
2021/11/23 01:55:51;;;;;;;11.23;7.90;;;;;;;9.67;62.29;98931.69;5034292;28;20018;-49
2021/11/23 01:58:17;;;;;;;13.68;8.93;;;;;;;9.85;61.81;98928.63;5052175;28;20441;-49
2021/11/23 02:00:45;;;;;;;13.52;8.43;;;;;;;9.97;61.79;98928.91;5052165;28;20013;-49
2021/11/23 02:03:11;;;;;;;11.40;7.18;;;;;;;10.04;61.42;98931.59;5052067;28;20372;-49
2021/11/23 02:05:38;;;;;;;11.80;7.97;;;;;;;9.99;61.45;98930.34;5052041;28;20122;-49
2021/11/23 02:08:04;;;;;;;10.52;7.85;;;;;;;9.98;61.37;98923.50;5050705;28;20099;-49
2021/11/23 02:10:29;;;;;;;13.48;8.27;;;;;;;9.98;61.53;98926.13;5051926;28;20075;-49
2021/11/23 02:12:55;;;;;;;14.25;10.73;;;;;;;10.14;61.45;98930.25;5033884;28;20025;-49
2021/11/23 02:15:21;;;;;;;16.13;8.98;;;;;;;10.29;61.09;98930.16;5051858;28;20021;-49
2021/11/23 02:17:47;;;;;;;18.85;16.77;;;;;;;10.46;60.43;98925.44;5051921;28;20052;-49
2021/11/23 02:20:23;;;;;;;14.60;8.85;;;;;;;10.63;59.97;98922.50;5033966;28;20021;-49
2021/11/23 02:22:49;;;;;;;15.32;10.60;;;;;;;10.78;59.70;98918.75;5051816;28;20029;-49
2021/11/23 02:25:16;;;;;;;14.00;8.77;;;;;;;10.84;59.24;98924.19;5051798;28;20023;-49
2021/11/23 02:27:45;;;;;;;11.20;8.18;;;;;;;10.86;59.28;98924.81;5051741;28;20036;-49
2021/11/23 02:30:11;;;;;;;11.05;7.88;;;;;;;10.82;59.10;98934.91;5051477;28;20049;-49
2021/11/23 02:32:52;;;;;;;11.55;7.55;;;;;;;10.84;59.48;98932.88;5051631;28;20159;-49
2021/11/23 02:35:23;;;;;;;12.95;7.85;;;;;;;10.88;58.97;98931.47;5051689;28;20036;-49
2021/11/23 02:37:52;;;;;;;16.05;8.65;;;;;;;10.89;58.75;98930.50;5051647;28;20021;-49
2021/11/23 02:40:20;;;;;;;10.10;7.35;;;;;;;10.93;58.68;98933.53;5051533;28;20025;-49
2021/11/23 02:42:47;;;;;;;23.15;13.02;;;;;;;10.95;58.64;98929.72;5051548;28;20108;-49
2021/11/23 02:45:17;;;;;;;13.23;7.85;;;;;;;11.03;58.38;98931.34;5033664;28;20029;-49
2021/11/23 02:47:43;;;;;;;15.60;8.15;;;;;;;11.09;58.35;98937.63;5033726;28;20120;-49
2021/11/23 02:50:12;;;;;;;19.63;7.53;;;;;;;11.12;58.30;98937.22;5033749;28;20112;-49
2021/11/23 02:52:40;;;;;;;18.17;8.98;;;;;;;11.07;58.11;98935.22;5051401;28;20033;-49
2021/11/23 02:55:07;;;;;;;12.93;7.45;;;;;;;11.05;58.21;98937.22;5051499;28;20025;-49
2021/11/23 02:57:35;;;;;;;13.23;7.13;;;;;;;11.04;58.35;98937.41;5034152;28;20021;-49
2021/11/23 03:00:23;;;;;;;11.75;8.15;;;;;;;10.87;58.56;98937.75;5055446;28;20363;-49
2021/11/23 03:02:49;;;;;;;12.45;7.68;;;;;;;10.75;58.87;98941.94;5055467;28;20402;-50
2021/11/23 03:05:17;;;;;;;9.07;7.95;;;;;;;10.67;59.22;98937.66;5055360;28;20040;-49
2021/11/23 03:07:43;;;;;;;12.95;7.70;;;;;;;10.53;59.55;98942.03;5055383;28;20029;-49
2021/11/23 03:10:10;;;;;;;12.77;7.95;;;;;;;10.49;59.70;98943.41;5055292;28;20528;-49
2021/11/23 03:12:38;;;;;;;9.88;7.32;;;;;;;10.56;59.59;98938.19;5055207;28;20021;-49
2021/11/23 03:15:07;;;;;;;11.63;7.82;;;;;;;10.64;59.51;98937.25;5055150;28;20024;-50
2021/11/23 03:17:32;;;;;;;13.02;7.18;;;;;;;10.70;59.22;98936.47;5055234;28;20238;-49
2021/11/23 03:19:58;;;;;;;9.02;7.22;;;;;;;10.72;59.10;98942.31;5055116;28;20457;-50
2021/11/23 03:22:24;;;;;;;12.43;7.80;;;;;;;10.78;59.03;98936.28;5055040;28;20024;-49
2021/11/23 03:24:49;;;;;;;11.25;7.47;;;;;;;10.80;58.77;98936.91;5055040;28;20028;-49
2021/11/23 03:27:15;;;;;;;10.60;8.23;;;;;;;10.77;58.63;98935.50;5054968;28;20021;-49
2021/11/23 03:29:41;;;;;;;9.10;7.55;;;;;;;10.70;58.64;98946.97;5054731;28;20048;-49
2021/11/23 03:32:08;;;;;;;9.30;7.47;;;;;;;10.62;58.69;98939.25;5054907;28;20028;-49
2021/11/23 03:34:39;;;;;;;15.13;7.75;;;;;;;10.58;59.23;98939.66;5036882;28;20029;-50
2021/11/23 03:37:08;;;;;;;9.35;7.20;;;;;;;10.67;59.07;98932.41;5054687;28;20482;-49
2021/11/23 03:39:34;;;;;;;9.85;7.43;;;;;;;10.81;58.80;98930.66;5054783;28;20040;-49
2021/11/23 03:41:59;;;;;;;10.05;7.63;;;;;;;10.86;57.57;98930.88;5054935;28;20033;-49
2021/11/23 03:44:26;;;;;;;9.95;7.68;;;;;;;10.53;58.27;98936.78;5054700;28;20078;-49
2021/11/23 03:46:52;;;;;;;15.20;8.30;;;;;;;10.29;58.83;98939.84;5054625;28;20029;-49
2021/11/23 03:49:18;;;;;;;22.20;14.90;;;;;;;9.98;59.72;98939.22;5054627;28;20112;-49
2021/11/23 03:51:44;;;;;;;17.65;7.75;;;;;;;10.02;60.42;98933.59;5054470;28;20100;-48
2021/11/23 03:54:10;;;;;;;11.27;7.60;;;;;;;10.41;60.17;98932.28;5054290;28;20021;-49
2021/11/23 03:56:36;;;;;;;9.27;7.20;;;;;;;10.69;59.37;98933.03;5054401;28;20498;-49
2021/11/23 03:59:02;;;;;;;11.63;6.95;;;;;;;10.90;58.94;98926.84;5054441;28;20066;-49
2021/11/23 04:01:27;;;;;;;10.70;7.07;;;;;;;11.02;58.39;98936.78;5036483;28;20402;-49
2021/11/23 04:03:53;;;;;;;11.07;7.03;;;;;;;11.12;58.01;98940.66;5054305;28;20525;-50
2021/11/23 04:06:19;;;;;;;12.93;7.20;;;;;;;11.18;57.66;98939.06;5054300;28;20048;-50
2021/11/23 04:08:45;;;;;;;11.02;7.28;;;;;;;11.16;57.93;98938.44;5053936;28;20413;-48
2021/11/23 04:11:10;;;;;;;12.48;6.22;;;;;;;11.16;57.75;98930.56;5053554;28;20036;-50
2021/11/23 04:13:36;;;;;;;11.70;7.50;;;;;;;11.20;57.70;98940.47;5054103;28;20017;-49
2021/11/23 04:16:02;;;;;;;9.60;6.90;;;;;;;11.27;57.55;98934.44;5054090;28;20021;-49
2021/11/23 04:18:28;;;;;;;10.20;6.57;;;;;;;11.37;57.49;98933.06;5054066;28;20426;-49
2021/11/23 04:20:54;;;;;;;11.73;6.80;;;;;;;11.38;57.06;98936.50;5053984;28;20020;-49
2021/11/23 04:23:19;;;;;;;14.48;7.60;;;;;;;11.40;57.11;98939.72;5054010;28;20068;-49
2021/11/23 04:25:45;;;;;;;10.88;6.32;;;;;;;11.51;57.16;98940.94;5053888;28;20024;-50
2021/11/23 04:28:11;;;;;;;12.55;7.65;;;;;;;11.54;56.94;98938.75;5050823;28;20054;-49
2021/11/23 04:30:36;;;;;;;15.00;6.30;;;;;;;11.59;56.45;98943.41;5033930;28;20029;-49
2021/11/23 04:33:02;;;;;;;22.13;7.10;;;;;;;11.47;56.10;98952.88;5015674;28;20402;-49
2021/11/23 04:35:28;;;;;;;13.38;6.80;;;;;;;11.19;57.23;98951.22;5033816;28;20084;-49
2021/11/23 04:37:54;;;;;;;16.80;6.93;;;;;;;11.21;57.36;98951.81;5033706;28;20029;-49
2021/11/23 04:40:19;;;;;;;9.65;6.63;;;;;;;11.26;57.29;98962.53;5033700;28;20495;-49
2021/11/23 04:42:45;;;;;;;17.63;7.72;;;;;;;11.24;57.12;98954.03;5033673;28;20104;-49
2021/11/23 04:45:13;;;;;;;9.43;6.82;;;;;;;11.19;57.48;98946.75;5033584;28;20104;-49
2021/11/23 04:47:40;;;;;;;15.85;7.72;;;;;;;11.12;57.43;98945.91;5033560;28;20028;-49
2021/11/23 04:50:08;;;;;;;17.77;7.43;;;;;;;11.15;57.63;98950.78;5015961;28;20084;-49
2021/11/23 04:52:33;;;;;;;12.95;6.53;;;;;;;11.26;57.59;98945.97;5015722;28;20057;-49
2021/11/23 04:55:00;;;;;;;24.52;8.65;;;;;;;11.33;57.32;98944.19;5033379;28;20060;-49
2021/11/23 04:57:25;;;;;;;13.35;7.47;;;;;;;11.39;57.05;98951.25;5033698;28;20072;-49
2021/11/23 04:59:52;;;;;;;8.80;7.90;;;;;;;10.81;56.26;98941.16;5033363;28;20021;-49
2021/11/23 05:02:19;;;;;;;11.38;7.40;;;;;;;10.15;58.37;98955.47;5033864;28;20037;-49
2021/11/23 05:04:45;;;;;;;9.63;6.95;;;;;;;9.63;59.65;98950.59;5033194;28;20391;-49
2021/11/23 05:07:11;;;;;;;67.80;28.63;;;;;;;9.57;60.36;98958.22;5033132;28;20040;-49
2021/11/23 05:09:37;;;;;;;18.45;7.57;;;;;;;9.87;60.91;98954.66;5033171;28;20502;-49
2021/11/23 05:12:03;;;;;;;20.33;8.30;;;;;;;10.14;60.04;98963.53;5033089;28;20029;-50
2021/11/23 05:14:29;;;;;;;17.23;6.53;;;;;;;10.32;59.69;98965.69;5032901;28;20081;-49
2021/11/23 05:16:54;;;;;;;11.65;6.18;;;;;;;10.50;59.38;98958.19;5015185;28;20053;-49
2021/11/23 05:19:20;;;;;;;14.60;6.28;;;;;;;10.66;58.83;98966.72;5033004;28;20052;-49
2021/11/23 05:21:46;;;;;;;11.18;5.93;;;;;;;10.79;58.64;98959.72;5032843;28;20494;-49
2021/11/23 05:24:13;;;;;;;10.60;7.07;;;;;;;10.91;58.06;98964.44;5032800;28;20030;-51
2021/11/23 05:26:39;;;;;;;15.07;7.20;;;;;;;11.10;57.74;98960.25;5032801;28;20033;-49
2021/11/23 05:29:05;;;;;;;12.85;7.03;;;;;;;11.20;57.40;98966.75;5032488;28;20052;-49
2021/11/23 05:31:32;;;;;;;9.23;6.03;;;;;;;11.31;57.30;98960.13;5032714;28;20514;-50
2021/11/23 05:33:58;;;;;;;13.48;6.80;;;;;;;11.42;56.84;98968.44;5032631;28;20028;-49
2021/11/23 05:36:24;;;;;;;12.35;6.75;;;;;;;11.33;55.71;98970.44;5032645;28;20021;-50
2021/11/23 05:38:50;;;;;;;9.73;6.55;;;;;;;10.69;57.28;98969.78;5032592;28;20026;-50
2021/11/23 05:41:16;;;;;;;7.65;6.35;;;;;;;10.38;57.49;98967.56;5032550;28;20493;-48
2021/11/23 05:43:42;;;;;;;12.27;7.22;;;;;;;9.89;58.85;98974.44;5014754;28;20021;-49
2021/11/23 05:46:08;;;;;;;9.38;6.25;;;;;;;9.75;59.40;98973.50;5032444;28;20036;-48
2021/11/23 05:48:33;;;;;;;11.65;6.68;;;;;;;9.65;59.26;98983.47;5014712;28;20028;-49
2021/11/23 05:51:03;;;;;;;12.80;6.72;;;;;;;9.51;60.53;98992.22;5032381;28;20048;-49
2021/11/23 05:53:34;;;;;;;25.13;7.05;;;;;;;9.82;60.57;98986.69;5032522;28;20044;-49
2021/11/23 05:56:00;;;;;;;15.55;6.57;;;;;;;10.23;59.62;98986.00;5032276;28;20076;-50
2021/11/23 05:58:26;;;;;;;8.50;5.70;;;;;;;10.14;59.32;98993.22;5032250;28;20387;-49
2021/11/23 06:00:53;;;;;;;8.27;6.18;;;;;;;10.23;59.18;98991.25;5014463;28;20495;-49
2021/11/23 06:03:19;;;;;;;15.55;6.35;;;;;;;10.23;58.75;98995.69;5032183;28;20032;-49
2021/11/23 06:05:44;;;;;;;11.27;6.25;;;;;;;10.10;59.22;98984.09;5030757;28;20033;-49
2021/11/23 06:08:10;;;;;;;10.30;6.32;;;;;;;9.74;59.24;98992.84;5032125;28;20502;-49
2021/11/23 06:10:36;;;;;;;10.32;6.47;;;;;;;9.08;60.33;99010.47;5031921;28;20025;-49
2021/11/23 06:13:02;;;;;;;17.33;6.47;;;;;;;8.52;61.82;99003.88;5031941;28;20108;-50
2021/11/23 06:15:29;;;;;;;11.18;6.22;;;;;;;8.07;62.44;99005.56;5032008;28;20029;-49
2021/11/23 06:18:02;;;;;;;15.75;8.30;;;;;;;7.82;63.71;99001.50;5031933;28;20498;-49
2021/11/23 06:20:32;;;;;;;8.60;5.75;;;;;;;7.56;64.61;99010.50;5031927;28;20112;-48
2021/11/23 06:23:03;;;;;;;15.15;6.60;;;;;;;7.34;66.06;99012.88;5032003;28;20025;-49
2021/11/23 06:25:30;;;;;;;18.30;8.27;;;;;;;7.59;66.66;99018.81;5031870;28;20029;-49
2021/11/23 06:27:56;;;;;;;24.88;7.13;;;;;;;8.12;65.20;99018.91;5013922;28;20104;-49
2021/11/23 06:30:22;;;;;;;22.25;7.13;;;;;;;8.51;64.32;99017.97;5014067;28;20491;-49
2021/11/23 06:32:49;;;;;;;18.63;7.40;;;;;;;8.82;64.04;99009.13;5031251;28;20037;-49
2021/11/23 06:35:15;;;;;;;11.45;6.35;;;;;;;9.11;63.13;99015.31;5031761;28;20274;-49
2021/11/23 06:37:42;;;;;;;14.85;6.15;;;;;;;9.33;62.59;99014.38;5031695;28;20116;-49
2021/11/23 06:40:10;;;;;;;13.63;6.15;;;;;;;9.58;62.00;99021.94;5031692;28;20111;-49
2021/11/23 06:42:36;;;;;;;15.57;6.78;;;;;;;9.63;60.72;99018.75;5031638;28;20036;-49
2021/11/23 06:45:04;;;;;;;22.02;6.80;;;;;;;9.39;60.78;99031.16;5031650;28;20026;-49
2021/11/23 06:47:30;;;;;;;27.52;5.72;;;;;;;9.11;61.08;99036.28;5031677;28;20103;-49
2021/11/23 06:49:55;;;;;;;11.50;6.22;;;;;;;8.75;61.34;99031.75;5031607;28;20558;-49
2021/11/23 06:52:23;;;;;;;16.13;6.65;;;;;;;8.22;62.72;99036.16;5031455;28;20483;-49
2021/11/23 06:54:49;;;;;;;15.68;7.10;;;;;;;7.95;63.51;99035.72;5031497;28;20037;-49
2021/11/23 06:57:15;;;;;;;19.00;6.47;;;;;;;7.81;64.61;99039.91;5031558;28;20017;-48
2021/11/23 06:59:41;;;;;;;15.27;6.72;;;;;;;8.17;64.76;99049.78;5013769;28;20395;-49
2021/11/23 07:02:07;;;;;;;16.83;6.68;;;;;;;8.50;63.87;99049.50;5013746;28;20034;-49
2021/11/23 07:04:34;;;;;;;15.68;5.57;;;;;;;8.75;63.79;99050.06;5031422;28;20025;-49
2021/11/23 07:07:00;;;;;;;13.20;6.28;;;;;;;9.07;62.82;99053.34;5013734;28;20026;-49
2021/11/23 07:09:26;;;;;;;12.88;5.95;;;;;;;9.17;61.91;99057.28;5031377;28;20021;-49
2021/11/23 07:11:52;;;;;;;10.82;5.82;;;;;;;8.95;62.01;99066.06;5031467;28;20025;-49
2021/11/23 07:14:19;;;;;;;17.08;6.85;;;;;;;8.43;62.97;99072.13;5031274;28;20022;-48
2021/11/23 07:16:46;;;;;;;16.55;5.85;;;;;;;8.36;64.30;99079.84;5013558;28;20029;-49
2021/11/23 07:19:12;;;;;;;12.95;5.72;;;;;;;8.93;63.67;99074.13;5031439;28;20171;-49
2021/11/23 07:21:38;;;;;;;31.13;6.65;;;;;;;9.65;62.23;99075.19;5031334;28;20565;-49
2021/11/23 07:24:04;;;;;;;25.80;8.75;;;;;;;10.29;60.57;99071.00;5031336;28;20053;-49
2021/11/23 07:26:31;;;;;;;8.75;4.95;;;;;;;10.84;59.13;99071.22;5031170;28;20080;-49
2021/11/23 07:29:01;;;;;;;9.35;5.78;;;;;;;11.11;57.76;99073.00;5030949;28;20051;-50
2021/11/23 07:31:28;;;;;;;26.15;6.30;;;;;;;11.30;57.06;99078.56;5031249;28;20446;-50
2021/11/23 07:33:54;;;;;;;30.88;9.02;;;;;;;11.58;57.12;99081.91;5013384;28;20391;-49
2021/11/23 07:36:21;;;;;;;20.38;6.32;;;;;;;11.71;56.13;99081.16;5031358;28;20025;-49
2021/11/23 07:38:49;;;;;;;27.40;7.68;;;;;;;11.66;56.57;99086.19;5031206;28;20391;-49
2021/11/23 07:41:15;;;;;;;13.48;6.43;;;;;;;11.72;56.15;99082.75;5031215;28;20101;-49
2021/11/23 07:43:41;;;;;;;21.20;8.38;;;;;;;11.91;55.91;99085.66;5013381;28;20068;-49
2021/11/23 07:46:06;;;;;;;32.05;8.88;;;;;;;11.85;55.43;99081.16;5016125;28;20013;-49
2021/11/23 07:48:32;;;;;;;15.20;6.88;;;;;;;11.55;55.68;99087.56;5034678;28;20505;-49
2021/11/23 07:50:58;;;;;;;12.52;6.00;;;;;;;11.32;55.98;99101.00;5034634;28;20096;-49
2021/11/23 07:53:24;;;;;;;10.77;6.05;;;;;;;11.17;56.34;99095.06;5034456;28;20032;-49
2021/11/23 07:55:51;;;;;;;19.58;6.65;;;;;;;11.12;56.41;99098.25;5034562;28;20022;-49
2021/11/23 07:58:17;;;;;;;74.10;47.40;;;;;;;11.28;56.40;99104.22;5034538;28;20022;-49
2021/11/23 08:00:44;;;;;;;18.90;8.43;;;;;;;11.60;55.57;99102.75;5016482;28;20029;-49
2021/11/23 08:03:11;;;;;;;87.95;55.88;;;;;;;11.74;55.62;99104.41;5034292;28;20022;-49
2021/11/23 08:05:38;;;;;;;112.20;62.65;;;;;;;11.98;54.73;99103.09;5034552;28;20498;-49
2021/11/23 08:08:06;;;;;;;32.97;10.30;;;;;;;12.10;54.50;99105.16;5034338;28;20021;-49
2021/11/23 08:10:33;;;;;;;9.95;5.60;;;;;;;12.15;53.65;99108.81;5034215;28;20025;-49
2021/11/23 08:12:58;;;;;;;11.73;6.57;;;;;;;11.71;54.10;99123.22;5034392;28;20434;-49
2021/11/23 08:15:24;;;;;;;15.13;5.68;;;;;;;11.68;54.35;99123.59;5034234;28;20030;-49
2021/11/23 08:17:51;;;;;;;7.80;5.68;;;;;;;11.90;53.72;99121.69;5034442;28;20028;-49
2021/11/23 08:20:17;;;;;;;6.95;5.38;;;;;;;11.95;53.54;99119.28;5034051;28;20021;-49
2021/11/23 08:22:45;;;;;;;12.63;6.72;;;;;;;11.95;54.11;99124.53;5034090;28;20040;-49
2021/11/23 08:25:11;;;;;;;7.45;6.35;;;;;;;11.72;53.82;99129.28;5034002;28;20018;-49
2021/11/23 08:27:39;;;;;;;11.45;6.75;;;;;;;11.45;54.42;99130.97;5016173;28;20414;-48
2021/11/23 08:30:08;;;;;;;16.02;7.20;;;;;;;11.22;54.87;99139.94;5015889;28;20068;-48
2021/11/23 08:32:35;;;;;;;10.07;7.10;;;;;;;11.00;54.85;99140.00;5015999;28;20080;-49
2021/11/23 08:35:00;;;;;;;9.18;6.95;;;;;;;10.92;55.04;99140.16;5033757;28;20483;-48
2021/11/23 08:37:27;;;;;;;8.57;6.00;;;;;;;10.84;55.35;99147.38;5016052;28;20076;-49
2021/11/23 08:39:57;;;;;;;10.20;6.55;;;;;;;10.73;55.62;99139.03;5015910;28;20029;-49
2021/11/23 08:42:24;;;;;;;10.05;6.82;;;;;;;10.46;56.40;99143.22;5033697;28;20032;-49
2021/11/23 08:44:51;;;;;;;778.45;593.30;;;;;;;10.47;56.61;99142.22;5033629;28;20403;-49
2021/11/23 08:47:18;;;;;;;359.50;260.65;;;;;;;10.30;56.81;99146.09;5015673;28;20047;-49
2021/11/23 08:49:44;;;;;;;142.63;119.10;;;;;;;10.38;57.05;99149.44;5033588;28;20056;-49
2021/11/23 08:52:12;;;;;;;951.67;630.63;;;;;;;10.82;56.55;99152.81;5033519;28;20018;-49
2021/11/23 08:54:37;;;;;;;97.80;67.20;;;;;;;11.27;55.83;99150.72;5033358;28;20021;-49
2021/11/23 08:57:05;;;;;;;32.08;16.08;;;;;;;11.69;54.55;99145.44;5033049;28;20021;-49
2021/11/23 08:59:33;;;;;;;52.53;26.30;;;;;;;11.85;54.38;99144.28;5033341;28;20399;-50
2021/11/23 09:02:00;;;;;;;32.28;18.55;;;;;;;12.73;53.29;99152.19;5033311;28;20026;-49
2021/11/23 09:04:29;;;;;;;18.10;9.43;;;;;;;13.25;51.20;99144.44;5015531;28;20112;-49
2021/11/23 09:06:56;;;;;;;19.20;9.88;;;;;;;13.38;50.57;99152.31;5033206;28;20068;-50
2021/11/23 09:09:27;;;;;;;11.75;6.80;;;;;;;13.78;49.41;99154.81;5033184;28;20022;-49
2021/11/23 09:11:54;;;;;;;7.95;5.95;;;;;;;13.64;48.84;99158.53;5033213;28;20033;-49
2021/11/23 09:14:20;;;;;;;20.70;7.10;;;;;;;13.76;49.34;99162.97;5032881;28;20025;-49
2021/11/23 09:16:46;;;;;;;21.75;9.32;;;;;;;13.87;48.96;99161.50;5033090;28;20014;-49
2021/11/23 09:19:12;;;;;;;21.52;7.97;;;;;;;14.07;48.71;99166.69;5033003;28;20057;-49
2021/11/23 09:21:37;;;;;;;14.75;6.95;;;;;;;14.48;48.34;99170.69;5015176;28;20013;-49
2021/11/23 09:24:03;;;;;;;15.85;7.40;;;;;;;15.78;46.17;99164.66;5032967;28;20033;-49
2021/11/23 09:26:30;;;;;;;19.48;6.55;;;;;;;17.05;44.04;99148.78;5032794;28;20025;-50
2021/11/23 09:28:57;;;;;;;10.02;5.53;;;;;;;17.91;40.29;99149.78;5032604;28;20045;-50
2021/11/23 09:31:24;;;;;;;20.25;7.05;;;;;;;18.02;41.36;99155.28;5014891;28;20041;-50
2021/11/23 09:33:50;;;;;;;35.60;9.77;;;;;;;19.16;39.53;99156.91;5014899;28;20108;-50
2021/11/23 09:36:16;;;;;;;11.85;6.38;;;;;;;20.03;37.08;99157.19;5032625;28;20398;-49
2021/11/23 09:38:42;;;;;;;10.75;5.38;;;;;;;20.28;35.38;99167.28;5032656;28;20101;-50
2021/11/23 09:41:09;;;;;;;10.23;5.40;;;;;;;20.17;35.18;99168.28;5014631;28;20073;-49
2021/11/23 09:43:38;;;;;;;9.30;5.25;;;;;;;19.01;35.93;99168.13;5032525;28;20036;-49
2021/11/23 09:46:07;;;;;;;8.80;5.53;;;;;;;17.80;37.46;99182.44;5032538;28;20037;-49
2021/11/23 09:48:33;;;;;;;20.10;6.28;;;;;;;16.40;39.74;99187.50;5032537;28;20104;-50
2021/11/23 09:50:59;;;;;;;11.85;6.00;;;;;;;15.61;41.87;99189.25;5032420;28;20068;-50
2021/11/23 09:53:26;;;;;;;16.17;6.15;;;;;;;16.51;41.63;99172.66;5014520;28;20045;-49
2021/11/23 09:55:53;;;;;;;14.75;5.55;;;;;;;17.03;40.49;99182.66;5032383;28;20026;-50
2021/11/23 09:58:20;;;;;;;10.65;6.18;;;;;;;18.19;39.28;99177.41;5032281;28;20093;-50
2021/11/23 10:00:49;;;;;;;6.57;5.50;;;;;;;19.39;37.53;99179.03;5030937;28;20034;-50
2021/11/23 10:03:25;;;;;;;10.68;6.15;;;;;;;20.24;36.09;99179.53;5032191;28;20021;-50
2021/11/23 10:05:51;;;;;;;13.68;5.50;;;;;;;20.63;34.64;99174.84;5032230;28;20514;-50
2021/11/23 10:08:19;;;;;;;16.58;5.40;;;;;;;20.79;33.48;99183.00;5031459;28;20518;-50
2021/11/23 10:10:49;;;;;;;8.27;4.78;;;;;;;20.29;34.33;99182.25;5032101;28;20053;-51
2021/11/23 10:13:16;;;;;;;16.58;5.32;;;;;;;19.77;34.76;99183.53;5032018;28;20021;-49
2021/11/23 10:15:47;;;;;;;20.48;5.20;;;;;;;18.62;36.05;99181.31;5031986;28;20096;-50
2021/11/23 10:18:23;;;;;;;6.88;4.65;;;;;;;18.28;37.10;99183.94;5032035;28;20083;-50
2021/11/23 10:20:57;;;;;;;12.23;5.50;;;;;;;19.16;36.11;99180.88;5031898;28;20119;-50
2021/11/23 10:23:27;;;;;;;7.55;5.50;;;;;;;19.36;34.75;99183.81;5032098;28;20033;-50
2021/11/23 10:25:56;;;;;;;21.02;6.03;;;;;;;18.65;36.03;99180.84;5014089;28;20510;-50
2021/11/23 10:28:26;;;;;;;15.30;5.22;;;;;;;18.88;35.75;99176.47;5031526;28;20041;-50
2021/11/23 10:30:52;;;;;;;9.40;5.25;;;;;;;19.17;35.19;99171.81;5014118;28;20034;-49
2021/11/23 10:33:19;;;;;;;18.50;5.88;;;;;;;19.32;35.22;99169.38;5031922;28;20038;-50
2021/11/23 10:35:48;;;;;;;7.40;4.85;;;;;;;19.25;35.30;99173.25;5032035;28;20426;-50
2021/11/23 10:38:14;;;;;;;8.93;5.43;;;;;;;19.08;35.57;99171.44;5032030;28;20099;-50
2021/11/23 10:40:43;;;;;;;13.65;6.10;;;;;;;19.03;36.14;99178.53;5031765;28;20503;-50
2021/11/23 10:43:13;;;;;;;13.77;6.72;;;;;;;19.19;35.84;99174.25;5013938;28;20120;-50
2021/11/23 10:45:43;;;;;;;13.45;6.00;;;;;;;19.52;35.16;99168.03;5031755;28;20110;-50
2021/11/23 10:48:11;;;;;;;14.38;6.35;;;;;;;19.38;35.43;99159.63;5031638;28;20029;-50
2021/11/23 10:50:39;;;;;;;14.30;6.05;;;;;;;19.33;35.34;99155.00;5031585;28;20049;-50
2021/11/23 10:53:16;;;;;;;8.55;6.55;;;;;;;18.60;36.20;99162.16;5031487;28;20108;-49
2021/11/23 10:55:44;;;;;;;9.57;5.60;;;;;;;17.83;37.33;99159.94;5013805;28;20049;-50
2021/11/23 10:58:12;;;;;;;10.70;5.97;;;;;;;17.17;38.41;99157.53;5013740;28;20029;-50
2021/11/23 11:00:48;;;;;;;16.45;5.60;;;;;;;16.48;39.44;99168.63;5031579;28;20021;-50
2021/11/23 11:03:19;;;;;;;12.02;6.07;;;;;;;16.10;39.98;99161.81;5013869;28;20022;-50
2021/11/23 11:05:46;;;;;;;14.65;6.95;;;;;;;15.59;40.89;99170.94;5031584;28;20494;-49
2021/11/23 11:08:14;;;;;;;12.38;6.10;;;;;;;15.10;42.05;99162.13;5031521;28;20060;-50
2021/11/23 11:10:41;;;;;;;15.15;7.28;;;;;;;14.84;42.53;99152.59;5031469;28;20513;-50
2021/11/23 11:13:12;;;;;;;15.45;6.88;;;;;;;14.95;43.54;99163.25;5013596;28;20438;-50
2021/11/23 11:15:42;;;;;;;13.52;6.10;;;;;;;16.07;42.18;99162.25;5031518;28;20057;-49
2021/11/23 11:18:12;;;;;;;9.55;5.63;;;;;;;17.33;40.32;99148.06;5031540;28;20515;-51
2021/11/23 11:20:40;;;;;;;23.23;7.35;;;;;;;18.42;38.21;99152.53;5035347;28;20026;-50
2021/11/23 11:23:09;;;;;;;17.85;5.93;;;;;;;19.14;36.87;99159.81;5035208;28;20022;-51
2021/11/23 11:26:41;;;;;;;16.60;6.53;;;;;;;20.05;36.10;99150.56;5035217;28;20060;-50